sensor_id;sensor_type;location;lat;lon;timestamp;P1;durP1;ratioP1;P2;durP2;ratioP2
36629;SDS011;36256;42.154;23.002;2022-07-23T00:00:16;11.70;;;5.90;;
36629;SDS011;36256;42.154;23.002;2022-07-23T00:02:43;12.05;;;5.13;;
36629;SDS011;36256;42.154;23.002;2022-07-23T00:05:10;14.68;;;5.60;;
36629;SDS011;36256;42.154;23.002;2022-07-23T00:07:37;16.65;;;5.90;;
36629;SDS011;36256;42.154;23.002;2022-07-23T00:12:31;18.92;;;5.78;;
36629;SDS011;36256;42.154;23.002;2022-07-23T00:14:58;10.23;;;5.78;;
36629;SDS011;36256;42.154;23.002;2022-07-23T00:17:25;12.95;;;6.00;;
36629;SDS011;36256;42.154;23.002;2022-07-23T00:19:51;20.67;;;5.88;;
36629;SDS011;36256;42.154;23.002;2022-07-23T00:22:19;15.32;;;6.90;;
36629;SDS011;36256;42.154;23.002;2022-07-23T00:24:46;12.45;;;5.88;;
36629;SDS011;36256;42.154;23.002;2022-07-23T00:27:33;9.63;;;5.88;;
36629;SDS011;36256;42.154;23.002;2022-07-23T00:29:59;12.93;;;5.93;;
36629;SDS011;36256;42.154;23.002;2022-07-23T00:32:26;17.17;;;6.10;;
36629;SDS011;36256;42.154;23.002;2022-07-23T00:35:12;10.65;;;6.05;;
36629;SDS011;36256;42.154;23.002;2022-07-23T00:37:39;9.68;;;5.38;;
36629;SDS011;36256;42.154;23.002;2022-07-23T00:40:06;17.42;;;5.93;;
36629;SDS011;36256;42.154;23.002;2022-07-23T00:45:00;13.15;;;6.50;;
36629;SDS011;36256;42.154;23.002;2022-07-23T00:47:27;14.55;;;6.15;;
36629;SDS011;36256;42.154;23.002;2022-07-23T00:49:53;12.68;;;5.82;;
36629;SDS011;36256;42.154;23.002;2022-07-23T00:52:20;11.35;;;5.78;;
36629;SDS011;36256;42.154;23.002;2022-07-23T00:54:47;12.63;;;5.50;;
36629;SDS011;36256;42.154;23.002;2022-07-23T00:57:14;8.45;;;5.57;;
36629;SDS011;36256;42.154;23.002;2022-07-23T00:59:41;11.95;;;6.05;;
36629;SDS011;36256;42.154;23.002;2022-07-23T01:02:07;9.57;;;5.55;;
36629;SDS011;36256;42.154;23.002;2022-07-23T01:04:34;13.02;;;5.90;;
36629;SDS011;36256;42.154;23.002;2022-07-23T01:07:01;9.45;;;5.82;;
36629;SDS011;36256;42.154;23.002;2022-07-23T01:09:27;8.50;;;5.75;;
36629;SDS011;36256;42.154;23.002;2022-07-23T01:11:55;11.07;;;6.05;;
36629;SDS011;36256;42.154;23.002;2022-07-23T01:14:23;12.82;;;6.38;;
36629;SDS011;36256;42.154;23.002;2022-07-23T01:16:50;12.38;;;5.70;;
36629;SDS011;36256;42.154;23.002;2022-07-23T01:19:17;10.63;;;5.60;;
36629;SDS011;36256;42.154;23.002;2022-07-23T01:21:46;7.78;;;5.70;;
36629;SDS011;36256;42.154;23.002;2022-07-23T01:24:14;8.30;;;5.70;;
36629;SDS011;36256;42.154;23.002;2022-07-23T01:26:44;17.13;;;5.82;;
36629;SDS011;36256;42.154;23.002;2022-07-23T01:29:11;13.90;;;5.72;;
36629;SDS011;36256;42.154;23.002;2022-07-23T01:34:05;12.45;;;5.97;;
36629;SDS011;36256;42.154;23.002;2022-07-23T01:36:33;10.38;;;5.72;;
36629;SDS011;36256;42.154;23.002;2022-07-23T01:39:01;10.90;;;6.47;;
36629;SDS011;36256;42.154;23.002;2022-07-23T01:41:30;10.65;;;5.75;;
36629;SDS011;36256;42.154;23.002;2022-07-23T01:43:57;7.82;;;5.80;;
36629;SDS011;36256;42.154;23.002;2022-07-23T01:46:23;15.38;;;6.25;;
36629;SDS011;36256;42.154;23.002;2022-07-23T01:48:50;10.88;;;6.10;;
36629;SDS011;36256;42.154;23.002;2022-07-23T01:51:17;9.38;;;6.10;;
36629;SDS011;36256;42.154;23.002;2022-07-23T01:53:44;10.32;;;6.38;;
36629;SDS011;36256;42.154;23.002;2022-07-23T01:56:10;10.70;;;6.20;;
36629;SDS011;36256;42.154;23.002;2022-07-23T01:58:37;9.65;;;6.13;;
36629;SDS011;36256;42.154;23.002;2022-07-23T02:01:04;11.65;;;5.63;;
36629;SDS011;36256;42.154;23.002;2022-07-23T02:03:31;11.43;;;6.20;;
36629;SDS011;36256;42.154;23.002;2022-07-23T02:05:58;9.82;;;6.15;;
36629;SDS011;36256;42.154;23.002;2022-07-23T02:08:24;11.97;;;5.93;;
36629;SDS011;36256;42.154;23.002;2022-07-23T02:10:51;8.17;;;5.70;;
36629;SDS011;36256;42.154;23.002;2022-07-23T02:13:18;11.75;;;6.22;;
36629;SDS011;36256;42.154;23.002;2022-07-23T02:15:47;11.23;;;5.97;;
36629;SDS011;36256;42.154;23.002;2022-07-23T02:18:14;10.70;;;6.07;;
36629;SDS011;36256;42.154;23.002;2022-07-23T02:20:41;11.57;;;5.97;;
36629;SDS011;36256;42.154;23.002;2022-07-23T02:23:08;9.20;;;6.55;;
36629;SDS011;36256;42.154;23.002;2022-07-23T02:25:35;10.10;;;6.57;;
36629;SDS011;36256;42.154;23.002;2022-07-23T02:28:02;8.40;;;6.43;;
36629;SDS011;36256;42.154;23.002;2022-07-23T02:30:29;15.02;;;6.90;;
36629;SDS011;36256;42.154;23.002;2022-07-23T02:32:56;10.70;;;6.68;;
36629;SDS011;36256;42.154;23.002;2022-07-23T02:35:22;14.57;;;7.95;;
36629;SDS011;36256;42.154;23.002;2022-07-23T02:37:49;10.48;;;7.38;;
36629;SDS011;36256;42.154;23.002;2022-07-23T02:40:17;11.82;;;7.07;;
36629;SDS011;36256;42.154;23.002;2022-07-23T02:42:44;15.48;;;8.00;;
36629;SDS011;36256;42.154;23.002;2022-07-23T02:45:12;11.48;;;7.40;;
36629;SDS011;36256;42.154;23.002;2022-07-23T02:47:39;9.13;;;6.70;;
36629;SDS011;36256;42.154;23.002;2022-07-23T02:50:05;12.38;;;6.72;;
36629;SDS011;36256;42.154;23.002;2022-07-23T02:52:33;11.55;;;7.10;;
36629;SDS011;36256;42.154;23.002;2022-07-23T02:54:59;12.45;;;6.50;;
36629;SDS011;36256;42.154;23.002;2022-07-23T02:57:26;10.88;;;6.28;;
36629;SDS011;36256;42.154;23.002;2022-07-23T02:59:53;11.13;;;6.10;;
36629;SDS011;36256;42.154;23.002;2022-07-23T03:02:19;13.27;;;6.65;;
36629;SDS011;36256;42.154;23.002;2022-07-23T03:04:46;10.83;;;6.20;;
36629;SDS011;36256;42.154;23.002;2022-07-23T03:07:13;9.20;;;5.80;;
36629;SDS011;36256;42.154;23.002;2022-07-23T03:09:39;12.75;;;6.63;;
36629;SDS011;36256;42.154;23.002;2022-07-23T03:12:06;8.23;;;6.10;;
36629;SDS011;36256;42.154;23.002;2022-07-23T03:14:39;12.55;;;6.22;;
36629;SDS011;36256;42.154;23.002;2022-07-23T03:17:06;10.48;;;6.18;;
36629;SDS011;36256;42.154;23.002;2022-07-23T03:19:32;13.55;;;7.35;;
36629;SDS011;36256;42.154;23.002;2022-07-23T03:21:59;12.50;;;7.50;;
36629;SDS011;36256;42.154;23.002;2022-07-23T03:24:26;19.73;;;8.10;;
36629;SDS011;36256;42.154;23.002;2022-07-23T03:27:12;17.98;;;7.15;;
36629;SDS011;36256;42.154;23.002;2022-07-23T03:29:39;14.05;;;7.45;;
36629;SDS011;36256;42.154;23.002;2022-07-23T03:32:06;13.45;;;7.63;;
36629;SDS011;36256;42.154;23.002;2022-07-23T03:34:33;17.20;;;7.72;;
36629;SDS011;36256;42.154;23.002;2022-07-23T03:36:59;16.17;;;8.20;;
36629;SDS011;36256;42.154;23.002;2022-07-23T03:39:28;11.80;;;7.90;;
36629;SDS011;36256;42.154;23.002;2022-07-23T03:41:55;12.77;;;7.32;;
36629;SDS011;36256;42.154;23.002;2022-07-23T03:44:21;12.25;;;7.18;;
36629;SDS011;36256;42.154;23.002;2022-07-23T03:46:48;16.25;;;7.22;;
36629;SDS011;36256;42.154;23.002;2022-07-23T03:49:15;13.02;;;7.00;;
36629;SDS011;36256;42.154;23.002;2022-07-23T03:51:42;15.60;;;7.72;;
36629;SDS011;36256;42.154;23.002;2022-07-23T03:54:09;12.15;;;7.05;;
36629;SDS011;36256;42.154;23.002;2022-07-23T03:56:36;13.43;;;7.65;;
36629;SDS011;36256;42.154;23.002;2022-07-23T03:59:02;13.07;;;7.30;;
36629;SDS011;36256;42.154;23.002;2022-07-23T04:01:30;13.98;;;7.43;;
36629;SDS011;36256;42.154;23.002;2022-07-23T04:03:57;13.70;;;7.65;;
36629;SDS011;36256;42.154;23.002;2022-07-23T04:06:23;16.20;;;7.50;;
36629;SDS011;36256;42.154;23.002;2022-07-23T04:08:50;12.10;;;7.13;;
36629;SDS011;36256;42.154;23.002;2022-07-23T04:11:17;14.32;;;7.47;;
36629;SDS011;36256;42.154;23.002;2022-07-23T04:13:43;14.93;;;7.15;;
36629;SDS011;36256;42.154;23.002;2022-07-23T04:16:10;13.30;;;6.72;;
36629;SDS011;36256;42.154;23.002;2022-07-23T04:18:37;22.08;;;7.60;;
36629;SDS011;36256;42.154;23.002;2022-07-23T04:21:03;10.77;;;7.40;;
36629;SDS011;36256;42.154;23.002;2022-07-23T04:23:30;11.15;;;7.10;;
36629;SDS011;36256;42.154;23.002;2022-07-23T04:25:57;13.18;;;7.53;;
36629;SDS011;36256;42.154;23.002;2022-07-23T04:28:23;15.90;;;7.43;;
36629;SDS011;36256;42.154;23.002;2022-07-23T04:30:50;17.10;;;6.90;;
36629;SDS011;36256;42.154;23.002;2022-07-23T04:33:17;14.68;;;7.30;;
36629;SDS011;36256;42.154;23.002;2022-07-23T04:35:43;16.27;;;7.07;;
36629;SDS011;36256;42.154;23.002;2022-07-23T04:38:10;14.48;;;7.03;;
36629;SDS011;36256;42.154;23.002;2022-07-23T04:40:37;12.50;;;7.35;;
36629;SDS011;36256;42.154;23.002;2022-07-23T04:43:03;12.80;;;7.50;;
36629;SDS011;36256;42.154;23.002;2022-07-23T04:45:31;12.63;;;7.40;;
36629;SDS011;36256;42.154;23.002;2022-07-23T04:47:57;20.30;;;8.27;;
36629;SDS011;36256;42.154;23.002;2022-07-23T04:50:24;17.05;;;8.38;;
36629;SDS011;36256;42.154;23.002;2022-07-23T04:52:51;18.45;;;7.63;;
36629;SDS011;36256;42.154;23.002;2022-07-23T04:55:18;19.52;;;8.88;;
36629;SDS011;36256;42.154;23.002;2022-07-23T04:57:44;18.80;;;8.43;;
36629;SDS011;36256;42.154;23.002;2022-07-23T05:00:11;17.83;;;8.43;;
36629;SDS011;36256;42.154;23.002;2022-07-23T05:02:38;23.33;;;8.65;;
36629;SDS011;36256;42.154;23.002;2022-07-23T05:05:05;17.90;;;7.80;;
36629;SDS011;36256;42.154;23.002;2022-07-23T05:07:32;14.93;;;8.90;;
36629;SDS011;36256;42.154;23.002;2022-07-23T05:09:58;14.73;;;8.55;;
36629;SDS011;36256;42.154;23.002;2022-07-23T05:12:25;16.77;;;7.88;;
36629;SDS011;36256;42.154;23.002;2022-07-23T05:14:52;14.05;;;7.93;;
36629;SDS011;36256;42.154;23.002;2022-07-23T05:17:19;11.70;;;7.05;;
36629;SDS011;36256;42.154;23.002;2022-07-23T05:19:46;16.58;;;8.10;;
36629;SDS011;36256;42.154;23.002;2022-07-23T05:22:12;12.82;;;7.80;;
36629;SDS011;36256;42.154;23.002;2022-07-23T05:24:39;13.52;;;8.32;;
36629;SDS011;36256;42.154;23.002;2022-07-23T05:27:06;15.38;;;8.10;;
36629;SDS011;36256;42.154;23.002;2022-07-23T05:29:33;17.08;;;8.30;;
36629;SDS011;36256;42.154;23.002;2022-07-23T05:32:00;16.83;;;7.47;;
36629;SDS011;36256;42.154;23.002;2022-07-23T05:34:27;13.55;;;7.90;;
36629;SDS011;36256;42.154;23.002;2022-07-23T05:36:53;16.88;;;7.72;;
36629;SDS011;36256;42.154;23.002;2022-07-23T05:39:20;14.05;;;7.95;;
36629;SDS011;36256;42.154;23.002;2022-07-23T05:41:47;10.93;;;7.32;;
36629;SDS011;36256;42.154;23.002;2022-07-23T05:44:13;16.35;;;7.88;;
36629;SDS011;36256;42.154;23.002;2022-07-23T05:46:40;13.13;;;7.30;;
36629;SDS011;36256;42.154;23.002;2022-07-23T05:49:07;20.25;;;8.25;;
36629;SDS011;36256;42.154;23.002;2022-07-23T05:51:33;18.42;;;8.63;;
36629;SDS011;36256;42.154;23.002;2022-07-23T05:54:00;21.60;;;6.85;;
36629;SDS011;36256;42.154;23.002;2022-07-23T05:56:27;11.80;;;7.13;;
36629;SDS011;36256;42.154;23.002;2022-07-23T05:58:53;15.68;;;7.10;;
36629;SDS011;36256;42.154;23.002;2022-07-23T06:01:20;20.15;;;7.28;;
36629;SDS011;36256;42.154;23.002;2022-07-23T06:03:47;19.75;;;6.65;;
36629;SDS011;36256;42.154;23.002;2022-07-23T06:06:13;26.55;;;6.53;;
36629;SDS011;36256;42.154;23.002;2022-07-23T06:08:40;29.15;;;13.90;;
36629;SDS011;36256;42.154;23.002;2022-07-23T06:11:07;24.92;;;12.05;;
36629;SDS011;36256;42.154;23.002;2022-07-23T06:13:34;17.30;;;7.18;;
36629;SDS011;36256;42.154;23.002;2022-07-23T06:16:01;11.88;;;6.38;;
36629;SDS011;36256;42.154;23.002;2022-07-23T06:18:27;15.13;;;6.15;;
36629;SDS011;36256;42.154;23.002;2022-07-23T06:20:54;11.30;;;6.65;;
36629;SDS011;36256;42.154;23.002;2022-07-23T06:23:25;13.75;;;5.63;;
36629;SDS011;36256;42.154;23.002;2022-07-23T06:25:52;16.90;;;6.32;;
36629;SDS011;36256;42.154;23.002;2022-07-23T06:28:19;14.43;;;6.10;;
36629;SDS011;36256;42.154;23.002;2022-07-23T06:30:45;8.05;;;5.18;;
36629;SDS011;36256;42.154;23.002;2022-07-23T06:33:12;10.40;;;5.75;;
36629;SDS011;36256;42.154;23.002;2022-07-23T06:35:39;12.50;;;5.80;;
36629;SDS011;36256;42.154;23.002;2022-07-23T06:38:06;9.52;;;6.00;;
36629;SDS011;36256;42.154;23.002;2022-07-23T06:40:33;11.13;;;6.18;;
36629;SDS011;36256;42.154;23.002;2022-07-23T06:43:00;9.48;;;5.50;;
36629;SDS011;36256;42.154;23.002;2022-07-23T06:45:26;22.42;;;6.63;;
36629;SDS011;36256;42.154;23.002;2022-07-23T06:47:53;16.13;;;6.45;;
36629;SDS011;36256;42.154;23.002;2022-07-23T06:50:20;13.35;;;6.07;;
36629;SDS011;36256;42.154;23.002;2022-07-23T06:55:13;20.13;;;5.80;;
36629;SDS011;36256;42.154;23.002;2022-07-23T06:57:41;14.63;;;6.22;;
36629;SDS011;36256;42.154;23.002;2022-07-23T07:00:08;19.15;;;6.70;;
36629;SDS011;36256;42.154;23.002;2022-07-23T07:02:35;15.45;;;6.85;;
36629;SDS011;36256;42.154;23.002;2022-07-23T07:05:03;18.50;;;7.20;;
36629;SDS011;36256;42.154;23.002;2022-07-23T07:07:32;15.90;;;7.10;;
36629;SDS011;36256;42.154;23.002;2022-07-23T07:09:59;16.60;;;6.45;;
36629;SDS011;36256;42.154;23.002;2022-07-23T07:12:26;18.05;;;6.28;;
36629;SDS011;36256;42.154;23.002;2022-07-23T07:14:52;16.35;;;6.50;;
36629;SDS011;36256;42.154;23.002;2022-07-23T07:17:19;14.90;;;6.13;;
36629;SDS011;36256;42.154;23.002;2022-07-23T07:19:46;14.95;;;6.65;;
36629;SDS011;36256;42.154;23.002;2022-07-23T07:22:13;17.25;;;6.38;;
36629;SDS011;36256;42.154;23.002;2022-07-23T07:24:39;15.13;;;6.80;;
36629;SDS011;36256;42.154;23.002;2022-07-23T07:27:06;18.83;;;6.47;;
36629;SDS011;36256;42.154;23.002;2022-07-23T07:29:33;16.83;;;7.50;;
36629;SDS011;36256;42.154;23.002;2022-07-23T07:31:59;19.80;;;7.00;;
36629;SDS011;36256;42.154;23.002;2022-07-23T07:34:26;21.58;;;7.35;;
36629;SDS011;36256;42.154;23.002;2022-07-23T07:36:52;19.88;;;7.63;;
36629;SDS011;36256;42.154;23.002;2022-07-23T07:39:19;21.48;;;7.65;;
36629;SDS011;36256;42.154;23.002;2022-07-23T07:41:46;20.33;;;7.75;;
36629;SDS011;36256;42.154;23.002;2022-07-23T07:44:12;23.08;;;8.15;;
36629;SDS011;36256;42.154;23.002;2022-07-23T07:46:39;22.45;;;8.15;;
36629;SDS011;36256;42.154;23.002;2022-07-23T07:51:40;30.52;;;7.85;;
36629;SDS011;36256;42.154;23.002;2022-07-23T07:54:07;28.60;;;8.00;;
36629;SDS011;36256;42.154;23.002;2022-07-23T07:56:33;26.17;;;8.35;;
36629;SDS011;36256;42.154;23.002;2022-07-23T07:59:00;23.92;;;7.65;;
36629;SDS011;36256;42.154;23.002;2022-07-23T08:01:27;23.27;;;7.10;;
36629;SDS011;36256;42.154;23.002;2022-07-23T08:03:54;17.58;;;7.05;;
36629;SDS011;36256;42.154;23.002;2022-07-23T08:06:20;21.83;;;7.88;;
36629;SDS011;36256;42.154;23.002;2022-07-23T08:08:47;28.00;;;7.93;;
36629;SDS011;36256;42.154;23.002;2022-07-23T08:11:15;23.00;;;7.68;;
36629;SDS011;36256;42.154;23.002;2022-07-23T08:13:41;17.80;;;7.00;;
36629;SDS011;36256;42.154;23.002;2022-07-23T08:16:10;18.52;;;6.88;;
36629;SDS011;36256;42.154;23.002;2022-07-23T08:18:37;22.50;;;7.13;;
36629;SDS011;36256;42.154;23.002;2022-07-23T08:21:04;18.30;;;7.03;;
36629;SDS011;36256;42.154;23.002;2022-07-23T08:23:31;15.73;;;7.10;;
36629;SDS011;36256;42.154;23.002;2022-07-23T08:25:58;17.67;;;7.15;;
36629;SDS011;36256;42.154;23.002;2022-07-23T08:28:26;19.02;;;7.32;;
36629;SDS011;36256;42.154;23.002;2022-07-23T08:30:53;19.55;;;6.85;;
36629;SDS011;36256;42.154;23.002;2022-07-23T08:33:20;24.52;;;7.30;;
36629;SDS011;36256;42.154;23.002;2022-07-23T08:35:59;19.02;;;6.80;;
36629;SDS011;36256;42.154;23.002;2022-07-23T08:38:28;22.55;;;6.80;;
36629;SDS011;36256;42.154;23.002;2022-07-23T08:40:55;19.55;;;6.75;;
36629;SDS011;36256;42.154;23.002;2022-07-23T08:43:24;23.63;;;6.78;;
36629;SDS011;36256;42.154;23.002;2022-07-23T08:45:54;14.25;;;5.97;;
36629;SDS011;36256;42.154;23.002;2022-07-23T08:48:26;19.85;;;6.78;;
36629;SDS011;36256;42.154;23.002;2022-07-23T08:50:55;30.13;;;6.78;;
36629;SDS011;36256;42.154;23.002;2022-07-23T08:53:24;16.20;;;5.90;;
36629;SDS011;36256;42.154;23.002;2022-07-23T08:55:56;22.70;;;6.72;;
36629;SDS011;36256;42.154;23.002;2022-07-23T08:58:24;13.50;;;6.13;;
36629;SDS011;36256;42.154;23.002;2022-07-23T09:00:54;13.40;;;5.72;;
36629;SDS011;36256;42.154;23.002;2022-07-23T09:03:23;16.45;;;6.28;;
36629;SDS011;36256;42.154;23.002;2022-07-23T09:05:54;42.40;;;7.78;;
36629;SDS011;36256;42.154;23.002;2022-07-23T09:08:25;17.33;;;6.30;;
36629;SDS011;36256;42.154;23.002;2022-07-23T09:11:02;12.38;;;6.25;;
36629;SDS011;36256;42.154;23.002;2022-07-23T09:13:37;11.85;;;5.90;;
36629;SDS011;36256;42.154;23.002;2022-07-23T09:18:40;14.15;;;5.82;;
36629;SDS011;36256;42.154;23.002;2022-07-23T09:23:46;10.35;;;6.15;;
36629;SDS011;36256;42.154;23.002;2022-07-23T09:26:26;15.55;;;6.03;;
36629;SDS011;36256;42.154;23.002;2022-07-23T09:28:58;13.77;;;5.55;;
36629;SDS011;36256;42.154;23.002;2022-07-23T09:31:30;13.20;;;6.05;;
36629;SDS011;36256;42.154;23.002;2022-07-23T09:34:09;13.77;;;6.38;;
36629;SDS011;36256;42.154;23.002;2022-07-23T09:36:38;21.30;;;6.32;;
36629;SDS011;36256;42.154;23.002;2022-07-23T09:39:06;17.02;;;6.47;;
36629;SDS011;36256;42.154;23.002;2022-07-23T09:41:34;10.85;;;6.28;;
36629;SDS011;36256;42.154;23.002;2022-07-23T09:44:09;14.23;;;5.82;;
36629;SDS011;36256;42.154;23.002;2022-07-23T09:46:38;13.05;;;6.00;;
36629;SDS011;36256;42.154;23.002;2022-07-23T09:49:10;16.60;;;5.97;;
36629;SDS011;36256;42.154;23.002;2022-07-23T09:51:45;13.57;;;6.18;;
36629;SDS011;36256;42.154;23.002;2022-07-23T09:54:27;11.23;;;5.95;;
36629;SDS011;36256;42.154;23.002;2022-07-23T09:57:06;14.80;;;6.43;;
36629;SDS011;36256;42.154;23.002;2022-07-23T09:59:42;15.50;;;6.43;;
36629;SDS011;36256;42.154;23.002;2022-07-23T10:02:11;14.60;;;6.25;;
36629;SDS011;36256;42.154;23.002;2022-07-23T10:04:39;12.48;;;6.15;;
36629;SDS011;36256;42.154;23.002;2022-07-23T10:07:06;16.52;;;6.35;;
36629;SDS011;36256;42.154;23.002;2022-07-23T10:09:37;16.45;;;5.93;;
36629;SDS011;36256;42.154;23.002;2022-07-23T10:12:09;18.50;;;6.10;;
36629;SDS011;36256;42.154;23.002;2022-07-23T10:14:56;10.63;;;6.07;;
36629;SDS011;36256;42.154;23.002;2022-07-23T10:17:23;20.48;;;6.05;;
36629;SDS011;36256;42.154;23.002;2022-07-23T10:19:50;14.40;;;5.93;;
36629;SDS011;36256;42.154;23.002;2022-07-23T10:22:24;17.90;;;6.03;;
36629;SDS011;36256;42.154;23.002;2022-07-23T10:25:04;14.43;;;5.57;;
36629;SDS011;36256;42.154;23.002;2022-07-23T10:28:03;14.80;;;5.75;;
36629;SDS011;36256;42.154;23.002;2022-07-23T10:33:32;11.73;;;5.55;;
36629;SDS011;36256;42.154;23.002;2022-07-23T10:39:54;13.43;;;6.13;;
36629;SDS011;36256;42.154;23.002;2022-07-23T10:42:35;12.63;;;6.00;;
36629;SDS011;36256;42.154;23.002;2022-07-23T10:44:59;15.68;;;6.15;;
36629;SDS011;36256;42.154;23.002;2022-07-23T10:50:25;16.02;;;6.38;;
36629;SDS011;36256;42.154;23.002;2022-07-23T10:53:15;14.52;;;6.55;;
36629;SDS011;36256;42.154;23.002;2022-07-23T10:58:19;16.58;;;6.20;;
36629;SDS011;36256;42.154;23.002;2022-07-23T11:00:47;9.93;;;5.82;;
36629;SDS011;36256;42.154;23.002;2022-07-23T11:03:48;17.00;;;5.75;;
36629;SDS011;36256;42.154;23.002;2022-07-23T11:06:22;13.85;;;5.15;;
36629;SDS011;36256;42.154;23.002;2022-07-23T11:17:27;12.07;;;5.03;;
36629;SDS011;36256;42.154;23.002;2022-07-23T11:22:39;12.07;;;5.70;;
36629;SDS011;36256;42.154;23.002;2022-07-23T11:27:49;12.20;;;5.17;;
36629;SDS011;36256;42.154;23.002;2022-07-23T11:32:53;10.93;;;5.23;;
36629;SDS011;36256;42.154;23.002;2022-07-23T11:35:41;9.63;;;4.97;;
36629;SDS011;36256;42.154;23.002;2022-07-23T11:38:20;13.88;;;5.43;;
36629;SDS011;36256;42.154;23.002;2022-07-23T11:40:49;12.25;;;5.05;;
36629;SDS011;36256;42.154;23.002;2022-07-23T11:43:25;12.63;;;4.63;;
36629;SDS011;36256;42.154;23.002;2022-07-23T11:45:53;14.70;;;5.10;;
36629;SDS011;36256;42.154;23.002;2022-07-23T11:48:25;17.73;;;4.65;;
36629;SDS011;36256;42.154;23.002;2022-07-23T11:50:54;14.82;;;4.35;;
36629;SDS011;36256;42.154;23.002;2022-07-23T11:53:22;13.30;;;4.15;;
36629;SDS011;36256;42.154;23.002;2022-07-23T11:55:54;17.58;;;4.68;;
36629;SDS011;36256;42.154;23.002;2022-07-23T11:58:30;15.68;;;4.47;;
36629;SDS011;36256;42.154;23.002;2022-07-23T12:00:57;13.60;;;4.25;;
36629;SDS011;36256;42.154;23.002;2022-07-23T12:05:55;12.60;;;4.32;;
36629;SDS011;36256;42.154;23.002;2022-07-23T12:08:23;13.10;;;4.88;;
36629;SDS011;36256;42.154;23.002;2022-07-23T12:10:50;16.40;;;4.60;;
36629;SDS011;36256;42.154;23.002;2022-07-23T12:15:49;21.02;;;4.55;;
36629;SDS011;36256;42.154;23.002;2022-07-23T12:18:21;16.77;;;4.72;;
36629;SDS011;36256;42.154;23.002;2022-07-23T12:20:53;20.58;;;4.82;;
36629;SDS011;36256;42.154;23.002;2022-07-23T12:23:23;15.68;;;4.47;;
36629;SDS011;36256;42.154;23.002;2022-07-23T12:25:51;19.10;;;4.63;;
36629;SDS011;36256;42.154;23.002;2022-07-23T12:28:20;9.60;;;4.07;;
36629;SDS011;36256;42.154;23.002;2022-07-23T12:30:48;19.77;;;5.03;;
36629;SDS011;36256;42.154;23.002;2022-07-23T12:33:29;17.40;;;4.47;;
36629;SDS011;36256;42.154;23.002;2022-07-23T12:35:59;16.75;;;4.72;;
36629;SDS011;36256;42.154;23.002;2022-07-23T12:38:28;16.67;;;4.43;;
36629;SDS011;36256;42.154;23.002;2022-07-23T12:51:29;19.55;;;4.55;;
36629;SDS011;36256;42.154;23.002;2022-07-23T12:54:09;14.80;;;4.63;;
36629;SDS011;36256;42.154;23.002;2022-07-23T12:56:37;15.80;;;4.85;;
36629;SDS011;36256;42.154;23.002;2022-07-23T13:01:40;16.88;;;4.45;;
36629;SDS011;36256;42.154;23.002;2022-07-23T13:04:12;16.52;;;4.47;;
36629;SDS011;36256;42.154;23.002;2022-07-23T13:09:15;14.80;;;4.90;;
36629;SDS011;36256;42.154;23.002;2022-07-23T13:11:44;15.38;;;4.70;;
36629;SDS011;36256;42.154;23.002;2022-07-23T13:14:13;14.30;;;4.60;;
36629;SDS011;36256;42.154;23.002;2022-07-23T13:16:42;14.65;;;4.47;;
36629;SDS011;36256;42.154;23.002;2022-07-23T13:19:10;14.77;;;4.40;;
36629;SDS011;36256;42.154;23.002;2022-07-23T13:21:38;11.77;;;4.63;;
36629;SDS011;36256;42.154;23.002;2022-07-23T13:24:06;15.90;;;4.78;;
36629;SDS011;36256;42.154;23.002;2022-07-23T13:26:35;11.18;;;4.68;;
36629;SDS011;36256;42.154;23.002;2022-07-23T13:29:03;16.73;;;4.78;;
36629;SDS011;36256;42.154;23.002;2022-07-23T13:31:35;14.10;;;4.88;;
36629;SDS011;36256;42.154;23.002;2022-07-23T13:34:04;16.02;;;4.68;;
36629;SDS011;36256;42.154;23.002;2022-07-23T13:36:33;13.60;;;4.82;;
36629;SDS011;36256;42.154;23.002;2022-07-23T13:39:00;16.88;;;4.80;;
36629;SDS011;36256;42.154;23.002;2022-07-23T13:41:28;13.55;;;5.30;;
36629;SDS011;36256;42.154;23.002;2022-07-23T13:43:55;14.75;;;4.47;;
36629;SDS011;36256;42.154;23.002;2022-07-23T13:46:23;11.18;;;4.22;;
36629;SDS011;36256;42.154;23.002;2022-07-23T13:48:50;15.73;;;5.18;;
36629;SDS011;36256;42.154;23.002;2022-07-23T13:53:45;14.23;;;4.47;;
36629;SDS011;36256;42.154;23.002;2022-07-23T13:58:38;17.55;;;4.30;;
36629;SDS011;36256;42.154;23.002;2022-07-23T14:01:06;13.52;;;4.30;;
36629;SDS011;36256;42.154;23.002;2022-07-23T14:03:33;14.48;;;4.78;;
36629;SDS011;36256;42.154;23.002;2022-07-23T14:06:00;20.60;;;4.72;;
36629;SDS011;36256;42.154;23.002;2022-07-23T14:08:27;14.80;;;4.68;;
36629;SDS011;36256;42.154;23.002;2022-07-23T14:10:55;12.80;;;4.43;;
36629;SDS011;36256;42.154;23.002;2022-07-23T14:13:24;14.40;;;4.18;;
36629;SDS011;36256;42.154;23.002;2022-07-23T14:15:51;14.63;;;4.28;;
36629;SDS011;36256;42.154;23.002;2022-07-23T14:20:44;13.57;;;4.53;;
36629;SDS011;36256;42.154;23.002;2022-07-23T14:25:40;12.75;;;4.60;;
36629;SDS011;36256;42.154;23.002;2022-07-23T14:28:08;16.42;;;4.43;;
36629;SDS011;36256;42.154;23.002;2022-07-23T14:30:35;13.70;;;4.65;;
36629;SDS011;36256;42.154;23.002;2022-07-23T14:33:02;16.42;;;4.40;;
36629;SDS011;36256;42.154;23.002;2022-07-23T14:37:55;16.17;;;4.35;;
36629;SDS011;36256;42.154;23.002;2022-07-23T14:40:22;12.77;;;4.47;;
36629;SDS011;36256;42.154;23.002;2022-07-23T14:42:50;15.23;;;4.72;;
36629;SDS011;36256;42.154;23.002;2022-07-23T14:45:17;14.75;;;4.35;;
36629;SDS011;36256;42.154;23.002;2022-07-23T14:47:44;14.45;;;4.55;;
36629;SDS011;36256;42.154;23.002;2022-07-23T14:50:13;11.00;;;4.60;;
36629;SDS011;36256;42.154;23.002;2022-07-23T14:52:40;13.20;;;4.38;;
36629;SDS011;36256;42.154;23.002;2022-07-23T14:55:07;10.10;;;4.80;;
36629;SDS011;36256;42.154;23.002;2022-07-23T14:57:34;13.40;;;4.70;;
36629;SDS011;36256;42.154;23.002;2022-07-23T15:00:03;14.25;;;4.55;;
36629;SDS011;36256;42.154;23.002;2022-07-23T15:02:31;19.23;;;4.80;;
36629;SDS011;36256;42.154;23.002;2022-07-23T15:04:58;14.25;;;4.55;;
36629;SDS011;36256;42.154;23.002;2022-07-23T15:07:27;13.40;;;4.63;;
36629;SDS011;36256;42.154;23.002;2022-07-23T15:09:58;13.38;;;4.45;;
36629;SDS011;36256;42.154;23.002;2022-07-23T15:12:25;9.27;;;4.13;;
36629;SDS011;36256;42.154;23.002;2022-07-23T15:17:18;18.13;;;4.45;;
36629;SDS011;36256;42.154;23.002;2022-07-23T15:19:46;13.88;;;4.65;;
36629;SDS011;36256;42.154;23.002;2022-07-23T15:22:14;15.90;;;4.10;;
36629;SDS011;36256;42.154;23.002;2022-07-23T15:24:42;12.93;;;4.45;;
36629;SDS011;36256;42.154;23.002;2022-07-23T15:27:09;11.25;;;4.18;;
36629;SDS011;36256;42.154;23.002;2022-07-23T15:29:36;11.38;;;4.05;;
36629;SDS011;36256;42.154;23.002;2022-07-23T15:32:03;13.00;;;4.65;;
36629;SDS011;36256;42.154;23.002;2022-07-23T15:34:30;11.57;;;4.28;;
36629;SDS011;36256;42.154;23.002;2022-07-23T15:36:59;11.68;;;4.20;;
36629;SDS011;36256;42.154;23.002;2022-07-23T15:39:27;9.80;;;4.05;;
36629;SDS011;36256;42.154;23.002;2022-07-23T15:41:54;10.38;;;4.22;;
36629;SDS011;36256;42.154;23.002;2022-07-23T15:44:23;9.57;;;3.92;;
36629;SDS011;36256;42.154;23.002;2022-07-23T15:46:55;13.55;;;4.53;;
36629;SDS011;36256;42.154;23.002;2022-07-23T15:49:24;28.88;;;5.35;;
36629;SDS011;36256;42.154;23.002;2022-07-23T15:51:52;14.75;;;4.65;;